sensor_id;sensor_type;location;lat;lon;timestamp;P1;durP1;ratioP1;P2;durP2;ratioP2
31974;SDS011;18500;43.618;1.474;2023-02-05T10:32:50;651.13;;;603.75;;
31974;SDS011;18500;43.618;1.474;2023-02-05T10:37:55;527.67;;;492.27;;
31974;SDS011;18500;43.618;1.474;2023-02-05T10:40:31;737.05;;;680.63;;
31974;SDS011;18500;43.618;1.474;2023-02-05T10:43:13;572.45;;;531.90;;
31974;SDS011;18500;43.618;1.474;2023-02-05T10:45:41;741.28;;;685.60;;
31974;SDS011;18500;43.618;1.474;2023-02-05T10:51:01;665.85;;;615.25;;
31974;SDS011;18500;43.618;1.474;2023-02-05T10:53:32;573.47;;;533.42;;
31974;SDS011;18500;43.618;1.474;2023-02-05T10:56:01;646.00;;;598.35;;
31974;SDS011;18500;43.618;1.474;2023-02-05T11:01:50;692.13;;;640.60;;
31974;SDS011;18500;43.618;1.474;2023-02-05T11:04:00;671.15;;;619.42;;
31974;SDS011;18500;43.618;1.474;2023-02-05T11:06:40;634.63;;;586.75;;
31974;SDS011;18500;43.618;1.474;2023-02-05T11:09:26;696.92;;;640.95;;
31974;SDS011;18500;43.618;1.474;2023-02-05T11:11:54;702.95;;;646.55;;
31974;SDS011;18500;43.618;1.474;2023-02-05T11:14:35;628.80;;;580.28;;
31974;SDS011;18500;43.618;1.474;2023-02-05T11:17:05;669.63;;;613.90;;
31974;SDS011;18500;43.618;1.474;2023-02-05T11:19:40;583.25;;;538.13;;
31974;SDS011;18500;43.618;1.474;2023-02-05T11:22:27;607.60;;;554.20;;
31974;SDS011;18500;43.618;1.474;2023-02-05T11:25:03;662.40;;;606.33;;
31974;SDS011;18500;43.618;1.474;2023-02-05T11:27:34;630.33;;;579.78;;
31974;SDS011;18500;43.618;1.474;2023-02-05T11:32:49;564.53;;;521.95;;
31974;SDS011;18500;43.618;1.474;2023-02-05T11:35:20;565.35;;;515.08;;
31974;SDS011;18500;43.618;1.474;2023-02-05T11:38:04;587.85;;;540.50;;
31974;SDS011;18500;43.618;1.474;2023-02-05T11:40:32;457.77;;;422.08;;
31974;SDS011;18500;43.618;1.474;2023-02-05T11:43:00;558.17;;;508.02;;
31974;SDS011;18500;43.618;1.474;2023-02-05T11:45:29;591.72;;;539.67;;
31974;SDS011;18500;43.618;1.474;2023-02-05T11:47:56;566.83;;;519.50;;
31974;SDS011;18500;43.618;1.474;2023-02-05T11:50:25;506.30;;;464.67;;
31974;SDS011;18500;43.618;1.474;2023-02-05T11:52:53;455.08;;;421.45;;
31974;SDS011;18500;43.618;1.474;2023-02-05T11:55:27;428.52;;;397.90;;
31974;SDS011;18500;43.618;1.474;2023-02-05T11:57:59;639.50;;;588.33;;
31974;SDS011;18500;43.618;1.474;2023-02-05T12:00:30;500.55;;;462.80;;
31974;SDS011;18500;43.618;1.474;2023-02-05T12:03:12;601.90;;;551.80;;
31974;SDS011;18500;43.618;1.474;2023-02-05T12:05:43;599.85;;;557.20;;
31974;SDS011;18500;43.618;1.474;2023-02-05T12:19:19;413.23;;;381.73;;
31974;SDS011;18500;43.618;1.474;2023-02-05T12:24:44;588.03;;;541.63;;
31974;SDS011;18500;43.618;1.474;2023-02-05T12:27:29;353.33;;;329.35;;
31974;SDS011;18500;43.618;1.474;2023-02-05T12:30:26;400.27;;;368.50;;
31974;SDS011;18500;43.618;1.474;2023-02-05T12:47:32;402.65;;;375.80;;
31974;SDS011;18500;43.618;1.474;2023-02-05T12:55:29;912.70;;;834.08;;
31974;SDS011;18500;43.618;1.474;2023-02-05T12:57:57;801.65;;;741.88;;
31974;SDS011;18500;43.618;1.474;2023-02-05T13:00:27;692.88;;;640.55;;
31974;SDS011;18500;43.618;1.474;2023-02-05T13:13:29;757.40;;;701.28;;
31974;SDS011;18500;43.618;1.474;2023-02-05T13:16:08;667.80;;;618.58;;
31974;SDS011;18500;43.618;1.474;2023-02-05T13:18:39;852.40;;;783.40;;
31974;SDS011;18500;43.618;1.474;2023-02-05T13:21:14;961.13;;;877.70;;
31974;SDS011;18500;43.618;1.474;2023-02-05T13:27:13;799.67;;;735.45;;
31974;SDS011;18500;43.618;1.474;2023-02-05T13:30:08;1013.15;;;918.13;;
31974;SDS011;18500;43.618;1.474;2023-02-05T13:32:40;979.35;;;892.90;;
31974;SDS011;18500;43.618;1.474;2023-02-05T13:35:08;965.65;;;877.83;;
31974;SDS011;18500;43.618;1.474;2023-02-05T14:00:07;796.60;;;730.35;;
31974;SDS011;18500;43.618;1.474;2023-02-05T14:02:38;748.13;;;685.05;;
31974;SDS011;18500;43.618;1.474;2023-02-05T14:05:12;848.17;;;771.17;;
31974;SDS011;18500;43.618;1.474;2023-02-05T14:07:43;840.15;;;763.60;;
31974;SDS011;18500;43.618;1.474;2023-02-05T14:10:31;650.63;;;604.38;;
31974;SDS011;18500;43.618;1.474;2023-02-05T14:15:56;967.53;;;879.67;;
31974;SDS011;18500;43.618;1.474;2023-02-05T14:18:47;948.13;;;861.22;;
31974;SDS011;18500;43.618;1.474;2023-02-05T14:21:56;784.10;;;725.08;;
31974;SDS011;18500;43.618;1.474;2023-02-05T14:24:52;763.08;;;701.45;;
31974;SDS011;18500;43.618;1.474;2023-02-05T14:27:19;899.85;;;821.97;;
31974;SDS011;18500;43.618;1.474;2023-02-05T14:35:33;493.48;;;459.98;;
31974;SDS011;18500;43.618;1.474;2023-02-05T14:43:38;624.03;;;575.10;;
31974;SDS011;18500;43.618;1.474;2023-02-05T14:46:17;644.25;;;591.05;;
31974;SDS011;18500;43.618;1.474;2023-02-05T14:48:53;610.75;;;559.10;;
31974;SDS011;18500;43.618;1.474;2023-02-05T14:51:28;460.95;;;424.88;;
31974;SDS011;18500;43.618;1.474;2023-02-05T14:54:17;468.25;;;430.15;;
31974;SDS011;18500;43.618;1.474;2023-02-05T14:56:49;602.58;;;550.38;;
31974;SDS011;18500;43.618;1.474;2023-02-05T14:59:21;557.38;;;515.08;;
31974;SDS011;18500;43.618;1.474;2023-02-05T15:01:53;619.70;;;571.28;;
31974;SDS011;18500;43.618;1.474;2023-02-05T15:04:24;710.10;;;649.65;;
31974;SDS011;18500;43.618;1.474;2023-02-05T15:06:52;475.40;;;438.55;;
31974;SDS011;18500;43.618;1.474;2023-02-05T15:09:20;624.28;;;569.75;;
31974;SDS011;18500;43.618;1.474;2023-02-05T15:14:37;591.92;;;544.95;;
31974;SDS011;18500;43.618;1.474;2023-02-05T15:19:48;545.80;;;499.38;;
31974;SDS011;18500;43.618;1.474;2023-02-05T15:24:50;624.65;;;574.20;;
31974;SDS011;18500;43.618;1.474;2023-02-05T15:27:18;606.85;;;557.38;;
31974;SDS011;18500;43.618;1.474;2023-02-05T15:29:49;756.25;;;696.00;;
31974;SDS011;18500;43.618;1.474;2023-02-05T15:32:23;878.15;;;805.67;;
31974;SDS011;18500;43.618;1.474;2023-02-05T15:37:40;607.78;;;560.83;;
31974;SDS011;18500;43.618;1.474;2023-02-05T15:40:29;669.47;;;611.90;;
31974;SDS011;18500;43.618;1.474;2023-02-05T15:43:00;702.97;;;643.92;;
31974;SDS011;18500;43.618;1.474;2023-02-05T15:45:39;426.00;;;392.95;;
31974;SDS011;18500;43.618;1.474;2023-02-05T15:50:35;471.98;;;434.95;;
31974;SDS011;18500;43.618;1.474;2023-02-05T15:53:02;778.83;;;708.08;;
31974;SDS011;18500;43.618;1.474;2023-02-05T15:55:31;879.58;;;795.80;;
31974;SDS011;18500;43.618;1.474;2023-02-05T15:58:02;865.00;;;786.33;;
31974;SDS011;18500;43.618;1.474;2023-02-05T16:00:30;780.15;;;709.53;;
31974;SDS011;18500;43.618;1.474;2023-02-05T16:02:59;753.08;;;688.22;;
31974;SDS011;18500;43.618;1.474;2023-02-05T16:05:27;770.92;;;698.75;;
31974;SDS011;18500;43.618;1.474;2023-02-05T16:07:53;842.80;;;761.60;;
31974;SDS011;18500;43.618;1.474;2023-02-05T16:15:38;558.60;;;513.15;;
31974;SDS011;18500;43.618;1.474;2023-02-05T16:18:16;761.00;;;692.67;;
31974;SDS011;18500;43.618;1.474;2023-02-05T16:21:04;790.33;;;721.25;;
31974;SDS011;18500;43.618;1.474;2023-02-05T16:23:47;840.28;;;766.40;;
31974;SDS011;18500;43.618;1.474;2023-02-05T16:26:41;885.83;;;802.17;;
31974;SDS011;18500;43.618;1.474;2023-02-05T16:29:47;801.00;;;730.95;;
31974;SDS011;18500;43.618;1.474;2023-02-05T16:32:13;862.65;;;784.13;;
31974;SDS011;18500;43.618;1.474;2023-02-05T16:34:55;901.90;;;819.08;;
31974;SDS011;18500;43.618;1.474;2023-02-05T16:37:22;791.38;;;720.65;;
31974;SDS011;18500;43.618;1.474;2023-02-05T16:39:52;870.83;;;792.72;;
31974;SDS011;18500;43.618;1.474;2023-02-05T16:47:32;842.80;;;770.13;;
31974;SDS011;18500;43.618;1.474;2023-02-05T16:49:59;943.28;;;860.80;;
31974;SDS011;18500;43.618;1.474;2023-02-05T16:52:34;895.53;;;813.55;;
31974;SDS011;18500;43.618;1.474;2023-02-05T16:55:43;886.05;;;803.67;;
31974;SDS011;18500;43.618;1.474;2023-02-05T16:57:49;850.38;;;776.58;;
31974;SDS011;18500;43.618;1.474;2023-02-05T17:00:25;847.95;;;775.17;;
31974;SDS011;18500;43.618;1.474;2023-02-05T17:02:54;913.00;;;833.40;;
31974;SDS011;18500;43.618;1.474;2023-02-05T17:05:24;892.63;;;812.55;;
31974;SDS011;18500;43.618;1.474;2023-02-05T17:07:58;895.38;;;817.80;;
31974;SDS011;18500;43.618;1.474;2023-02-05T17:10:27;881.95;;;808.05;;
31974;SDS011;18500;43.618;1.474;2023-02-05T17:12:59;852.05;;;781.40;;
31974;SDS011;18500;43.618;1.474;2023-02-05T17:18:00;798.00;;;734.83;;
31974;SDS011;18500;43.618;1.474;2023-02-05T17:20:42;827.22;;;761.25;;
31974;SDS011;18500;43.618;1.474;2023-02-05T17:23:10;839.58;;;768.72;;
31974;SDS011;18500;43.618;1.474;2023-02-05T17:28:14;811.45;;;748.25;;
31974;SDS011;18500;43.618;1.474;2023-02-05T17:30:43;839.47;;;773.42;;
31974;SDS011;18500;43.618;1.474;2023-02-05T17:33:43;787.72;;;725.92;;
31974;SDS011;18500;43.618;1.474;2023-02-05T17:36:02;774.77;;;715.27;;
31974;SDS011;18500;43.618;1.474;2023-02-05T17:38:27;768.35;;;706.85;;
31974;SDS011;18500;43.618;1.474;2023-02-05T17:40:53;800.95;;;737.88;;
31974;SDS011;18500;43.618;1.474;2023-02-05T17:43:38;793.63;;;730.40;;
31974;SDS011;18500;43.618;1.474;2023-02-05T17:46:09;735.75;;;679.80;;
31974;SDS011;18500;43.618;1.474;2023-02-05T17:48:38;846.08;;;778.17;;
31974;SDS011;18500;43.618;1.474;2023-02-05T17:51:04;829.42;;;760.05;;
31974;SDS011;18500;43.618;1.474;2023-02-05T17:53:30;747.92;;;690.05;;
31974;SDS011;18500;43.618;1.474;2023-02-05T17:55:55;692.83;;;640.20;;
31974;SDS011;18500;43.618;1.474;2023-02-05T17:58:21;714.67;;;661.53;;
31974;SDS011;18500;43.618;1.474;2023-02-05T18:00:47;780.22;;;719.83;;
31974;SDS011;18500;43.618;1.474;2023-02-05T18:03:12;733.42;;;677.60;;
31974;SDS011;18500;43.618;1.474;2023-02-05T18:05:38;761.28;;;701.75;;
31974;SDS011;18500;43.618;1.474;2023-02-05T18:08:03;701.88;;;647.55;;
31974;SDS011;18500;43.618;1.474;2023-02-05T18:10:30;732.42;;;675.90;;
31974;SDS011;18500;43.618;1.474;2023-02-05T18:12:56;786.72;;;723.92;;
31974;SDS011;18500;43.618;1.474;2023-02-05T18:15:23;766.60;;;703.58;;
31974;SDS011;18500;43.618;1.474;2023-02-05T18:17:49;819.10;;;754.40;;
31974;SDS011;18500;43.618;1.474;2023-02-05T18:20:16;799.25;;;737.70;;
31974;SDS011;18500;43.618;1.474;2023-02-05T18:22:44;727.53;;;669.80;;
31974;SDS011;18500;43.618;1.474;2023-02-05T18:25:10;775.95;;;716.78;;
31974;SDS011;18500;43.618;1.474;2023-02-05T18:27:36;785.85;;;724.47;;
31974;SDS011;18500;43.618;1.474;2023-02-05T18:30:02;803.92;;;741.92;;
31974;SDS011;18500;43.618;1.474;2023-02-05T18:32:28;852.90;;;784.97;;
31974;SDS011;18500;43.618;1.474;2023-02-05T18:34:54;744.50;;;688.63;;
31974;SDS011;18500;43.618;1.474;2023-02-05T18:37:19;776.90;;;717.97;;
31974;SDS011;18500;43.618;1.474;2023-02-05T18:39:45;764.47;;;705.92;;
31974;SDS011;18500;43.618;1.474;2023-02-05T18:42:12;739.83;;;684.53;;
31974;SDS011;18500;43.618;1.474;2023-02-05T18:44:38;744.92;;;688.20;;
31974;SDS011;18500;43.618;1.474;2023-02-05T18:47:04;762.53;;;705.53;;
31974;SDS011;18500;43.618;1.474;2023-02-05T18:49:30;808.63;;;747.30;;
31974;SDS011;18500;43.618;1.474;2023-02-05T18:51:56;714.45;;;660.05;;
31974;SDS011;18500;43.618;1.474;2023-02-05T18:54:22;750.67;;;694.47;;
31974;SDS011;18500;43.618;1.474;2023-02-05T18:56:48;785.13;;;724.90;;
31974;SDS011;18500;43.618;1.474;2023-02-05T18:59:15;748.88;;;689.95;;
31974;SDS011;18500;43.618;1.474;2023-02-05T19:01:45;763.63;;;704.55;;
31974;SDS011;18500;43.618;1.474;2023-02-05T19:04:11;714.03;;;660.17;;
31974;SDS011;18500;43.618;1.474;2023-02-05T19:06:42;802.53;;;740.47;;
31974;SDS011;18500;43.618;1.474;2023-02-05T19:09:09;840.72;;;774.60;;
31974;SDS011;18500;43.618;1.474;2023-02-05T19:11:35;755.38;;;697.70;;
31974;SDS011;18500;43.618;1.474;2023-02-05T19:14:05;741.85;;;685.42;;
31974;SDS011;18500;43.618;1.474;2023-02-05T19:16:34;678.40;;;625.30;;
31974;SDS011;18500;43.618;1.474;2023-02-05T19:19:00;752.38;;;694.25;;
31974;SDS011;18500;43.618;1.474;2023-02-05T19:21:27;692.20;;;640.42;;
31974;SDS011;18500;43.618;1.474;2023-02-05T19:23:55;750.58;;;692.92;;
31974;SDS011;18500;43.618;1.474;2023-02-05T19:26:23;775.08;;;713.03;;
31974;SDS011;18500;43.618;1.474;2023-02-05T19:28:52;802.28;;;739.60;;
31974;SDS011;18500;43.618;1.474;2023-02-05T19:31:26;796.72;;;733.95;;
31974;SDS011;18500;43.618;1.474;2023-02-05T19:33:54;814.45;;;748.30;;
31974;SDS011;18500;43.618;1.474;2023-02-05T19:36:20;725.03;;;668.70;;
31974;SDS011;18500;43.618;1.474;2023-02-05T19:38:46;763.38;;;703.70;;
31974;SDS011;18500;43.618;1.474;2023-02-05T19:41:16;641.80;;;593.17;;
31974;SDS011;18500;43.618;1.474;2023-02-05T19:46:16;782.67;;;720.08;;
31974;SDS011;18500;43.618;1.474;2023-02-05T19:48:43;799.83;;;736.03;;
31974;SDS011;18500;43.618;1.474;2023-02-05T19:51:09;796.40;;;735.53;;
31974;SDS011;18500;43.618;1.474;2023-02-05T19:53:37;846.47;;;779.88;;
31974;SDS011;18500;43.618;1.474;2023-02-05T19:56:04;864.80;;;793.78;;
31974;SDS011;18500;43.618;1.474;2023-02-05T19:58:32;820.35;;;752.03;;
31974;SDS011;18500;43.618;1.474;2023-02-05T20:00:58;806.90;;;737.05;;
31974;SDS011;18500;43.618;1.474;2023-02-05T20:29:44;456.60;;;420.33;;
31974;SDS011;18500;43.618;1.474;2023-02-05T20:32:29;448.58;;;415.90;;
31974;SDS011;18500;43.618;1.474;2023-02-05T20:34:55;439.23;;;410.67;;
31974;SDS011;18500;43.618;1.474;2023-02-05T20:37:21;591.47;;;549.53;;
31974;SDS011;18500;43.618;1.474;2023-02-05T20:39:46;621.95;;;572.47;;
31974;SDS011;18500;43.618;1.474;2023-02-05T20:42:12;535.75;;;500.75;;
31974;SDS011;18500;43.618;1.474;2023-02-05T20:44:39;382.60;;;357.40;;
31974;SDS011;18500;43.618;1.474;2023-02-05T20:47:06;397.65;;;369.67;;
31974;SDS011;18500;43.618;1.474;2023-02-05T20:49:34;482.33;;;449.38;;
31974;SDS011;18500;43.618;1.474;2023-02-05T20:52:01;433.33;;;402.45;;
31974;SDS011;18500;43.618;1.474;2023-02-05T20:54:27;532.97;;;496.88;;
31974;SDS011;18500;43.618;1.474;2023-02-05T20:56:53;617.92;;;576.15;;
31974;SDS011;18500;43.618;1.474;2023-02-05T20:59:23;779.17;;;723.05;;
31974;SDS011;18500;43.618;1.474;2023-02-05T21:01:50;800.15;;;731.67;;
31974;SDS011;18500;43.618;1.474;2023-02-05T21:04:16;867.85;;;795.85;;
31974;SDS011;18500;43.618;1.474;2023-02-05T21:06:44;938.63;;;848.97;;
31974;SDS011;18500;43.618;1.474;2023-02-05T21:09:10;956.92;;;860.17;;
31974;SDS011;18500;43.618;1.474;2023-02-05T21:11:37;1149.90;;;997.10;;
31974;SDS011;18500;43.618;1.474;2023-02-05T21:14:03;1159.90;;;999.90;;
31974;SDS011;18500;43.618;1.474;2023-02-05T21:16:30;1059.30;;;951.88;;
31974;SDS011;18500;43.618;1.474;2023-02-05T21:18:57;1072.22;;;961.05;;
31974;SDS011;18500;43.618;1.474;2023-02-05T21:21:24;1094.65;;;983.55;;
31974;SDS011;18500;43.618;1.474;2023-02-05T21:23:56;1083.07;;;973.03;;
31974;SDS011;18500;43.618;1.474;2023-02-05T21:26:25;1146.70;;;999.90;;
31974;SDS011;18500;43.618;1.474;2023-02-05T21:28:53;1168.20;;;999.90;;
31974;SDS011;18500;43.618;1.474;2023-02-05T21:31:19;1157.20;;;999.90;;
31974;SDS011;18500;43.618;1.474;2023-02-05T21:33:45;1144.43;;;999.90;;
31974;SDS011;18500;43.618;1.474;2023-02-05T21:36:11;1166.68;;;999.90;;
31974;SDS011;18500;43.618;1.474;2023-02-05T21:38:39;1164.22;;;999.90;;
31974;SDS011;18500;43.618;1.474;2023-02-05T21:41:10;1126.13;;;999.90;;
31974;SDS011;18500;43.618;1.474;2023-02-05T21:43:40;1156.05;;;999.90;;
31974;SDS011;18500;43.618;1.474;2023-02-05T21:46:10;1063.30;;;961.55;;
31974;SDS011;18500;43.618;1.474;2023-02-05T21:48:37;1144.40;;;999.90;;
31974;SDS011;18500;43.618;1.474;2023-02-05T21:51:04;1032.18;;;936.03;;
31974;SDS011;18500;43.618;1.474;2023-02-05T21:53:34;1157.67;;;999.90;;
31974;SDS011;18500;43.618;1.474;2023-02-05T21:56:01;1155.85;;;999.90;;
31974;SDS011;18500;43.618;1.474;2023-02-05T21:58:31;1141.90;;;999.90;;
31974;SDS011;18500;43.618;1.474;2023-02-05T22:03:41;1150.38;;;999.90;;
31974;SDS011;18500;43.618;1.474;2023-02-05T22:06:10;1151.40;;;999.90;;
31974;SDS011;18500;43.618;1.474;2023-02-05T22:08:36;1138.47;;;999.90;;
31974;SDS011;18500;43.618;1.474;2023-02-05T22:11:04;1066.82;;;966.95;;
31974;SDS011;18500;43.618;1.474;2023-02-05T22:13:32;1134.75;;;999.90;;
31974;SDS011;18500;43.618;1.474;2023-02-05T22:16:06;1131.22;;;999.90;;
31974;SDS011;18500;43.618;1.474;2023-02-05T22:18:34;1079.65;;;975.28;;
31974;SDS011;18500;43.618;1.474;2023-02-05T22:21:08;1126.78;;;999.90;;
31974;SDS011;18500;43.618;1.474;2023-02-05T22:23:39;1103.32;;;994.40;;
31974;SDS011;18500;43.618;1.474;2023-02-05T22:26:06;1111.55;;;998.00;;
31974;SDS011;18500;43.618;1.474;2023-02-05T22:28:32;1066.53;;;965.67;;
31974;SDS011;18500;43.618;1.474;2023-02-05T22:31:03;1093.78;;;990.50;;
31974;SDS011;18500;43.618;1.474;2023-02-05T22:33:30;1081.40;;;979.40;;
31974;SDS011;18500;43.618;1.474;2023-02-05T22:35:58;1054.22;;;956.92;;
